createdAt,value
2022-08-26T00:01:29.054Z,13.87
2022-08-26T00:03:57.539Z,12.07
2022-08-26T00:06:25.744Z,12.03
2022-08-26T00:08:53.375Z,14.40
2022-08-26T00:11:26.322Z,13.57
2022-08-26T00:13:57.593Z,13.33
2022-08-26T00:16:27.912Z,15.03
2022-08-26T00:18:55.591Z,14.87
2022-08-26T00:21:22.813Z,17.57
2022-08-26T00:23:50.848Z,15.80
2022-08-26T00:26:18.060Z,16.57
2022-08-26T00:28:45.271Z,14.77
2022-08-26T00:31:12.500Z,18.73
2022-08-26T00:33:40.148Z,17.17
2022-08-26T00:36:08.140Z,19.37
2022-08-26T00:38:47.742Z,18.20
2022-08-26T00:41:17.016Z,19.53
2022-08-26T00:43:46.300Z,22.37
2022-08-26T00:46:21.741Z,21.87
2022-08-26T00:48:53.806Z,20.83
2022-08-26T00:51:24.683Z,18.90
2022-08-26T00:54:06.041Z,21.20
2022-08-26T00:56:51.647Z,20.20
2022-08-26T00:59:20.248Z,19.07
2022-08-26T01:01:48.198Z,23.87
2022-08-26T01:04:20.244Z,21.47
2022-08-26T01:06:49.909Z,17.23
2022-08-26T01:09:18.003Z,23.10
2022-08-26T01:11:47.077Z,18.30
2022-08-26T01:14:15.293Z,21.97
2022-08-26T01:16:42.575Z,18.67
2022-08-26T01:19:47.626Z,20.37
2022-08-26T01:22:22.639Z,18.53
2022-08-26T01:24:57.465Z,19.57
2022-08-26T01:27:25.771Z,21.97
2022-08-26T01:29:53.228Z,21.10
2022-08-26T01:32:23.356Z,20.30
2022-08-26T01:34:51.349Z,23.30
2022-08-26T01:37:23.073Z,19.40
2022-08-26T01:39:53.329Z,23.00
2022-08-26T01:42:23.923Z,18.50
2022-08-26T01:45:06.464Z,22.40
2022-08-26T01:47:36.401Z,20.70
2022-08-26T01:50:09.376Z,18.30
2022-08-26T01:52:41.339Z,23.60
2022-08-26T01:55:12.190Z,24.77
2022-08-26T01:57:39.491Z,24.17
2022-08-26T02:00:09.147Z,23.53
2022-08-26T02:02:37.096Z,26.17
2022-08-26T02:05:07.014Z,22.63
2022-08-26T02:07:34.480Z,18.67
2022-08-26T02:10:01.671Z,25.30
2022-08-26T02:12:31.076Z,22.93
2022-08-26T02:15:01.673Z,20.33
2022-08-26T02:17:43.544Z,24.43
2022-08-26T02:20:14.956Z,22.63
2022-08-26T02:22:45.203Z,19.00
2022-08-26T02:25:24.898Z,18.93
2022-08-26T02:27:52.731Z,18.37
2022-08-26T02:30:26.884Z,18.67
2022-08-26T02:32:58.042Z,20.30
2022-08-26T02:35:25.648Z,15.20
2022-08-26T02:37:53.160Z,17.27
2022-08-26T02:40:25.074Z,16.23
2022-08-26T02:42:53.058Z,18.93
2022-08-26T02:45:23.022Z,13.10
2022-08-26T02:47:51.444Z,16.03
2022-08-26T02:50:20.447Z,18.47
2022-08-26T02:52:48.099Z,17.30
2022-08-26T02:55:15.808Z,16.53
2022-08-26T02:57:43.248Z,17.60
2022-08-26T03:00:12.693Z,18.33
2022-08-26T03:02:40.154Z,18.23
2022-08-26T03:05:07.651Z,17.53
2022-08-26T03:07:35.002Z,16.47
2022-08-26T03:10:08.141Z,12.80
2022-08-26T03:12:36.217Z,16.30
2022-08-26T03:15:17.437Z,14.60
2022-08-26T03:17:47.825Z,16.73
2022-08-26T03:20:17.458Z,13.50
2022-08-26T03:22:45.812Z,15.80
2022-08-26T03:25:15.836Z,15.13
2022-08-26T03:27:43.322Z,16.03
2022-08-26T03:30:14.017Z,14.70
2022-08-26T03:32:42.226Z,13.37
2022-08-26T03:35:10.120Z,10.93
2022-08-26T03:37:38.237Z,12.97
2022-08-26T03:40:07.663Z,13.70
2022-08-26T03:42:39.255Z,13.97
2022-08-26T03:45:09.076Z,12.33
2022-08-26T03:47:36.388Z,11.37
2022-08-26T03:50:08.396Z,12.67
2022-08-26T03:52:39.718Z,13.43
2022-08-26T03:55:11.487Z,11.57
2022-08-26T03:57:38.872Z,11.40
2022-08-26T04:00:08.910Z,12.53
2022-08-26T04:02:36.137Z,11.90
2022-08-26T04:05:03.715Z,11.43
2022-08-26T04:07:32.089Z,12.20
2022-08-26T04:10:00.481Z,9.77
2022-08-26T04:12:28.012Z,9.33
2022-08-26T04:14:55.317Z,9.37
2022-08-26T04:17:24.918Z,10.53
2022-08-26T04:19:55.212Z,11.23
2022-08-26T04:22:24.837Z,10.07
2022-08-26T04:24:52.863Z,11.70
2022-08-26T04:27:20.464Z,10.20
2022-08-26T04:29:47.978Z,9.03
2022-08-26T04:32:16.475Z,10.93
2022-08-26T04:34:44.878Z,9.60
2022-08-26T04:37:12.230Z,9.30
2022-08-26T04:39:39.620Z,9.10
2022-08-26T04:42:06.865Z,8.83
2022-08-26T04:44:36.033Z,10.03
2022-08-26T04:47:03.790Z,9.80
2022-08-26T04:49:35.353Z,8.17
2022-08-26T04:52:04.377Z,9.83
2022-08-26T04:54:32.132Z,7.80
2022-08-26T04:56:59.737Z,8.40
2022-08-26T04:59:26.926Z,9.73
2022-08-26T05:01:56.507Z,8.50
2022-08-26T05:04:23.795Z,8.53
2022-08-26T05:06:51.950Z,7.73
2022-08-26T05:09:19.766Z,9.67
2022-08-26T05:11:48.526Z,8.23
2022-08-26T05:14:20.119Z,8.80
2022-08-26T05:16:47.972Z,7.80
2022-08-26T05:19:17.258Z,7.70
2022-08-26T05:21:48.023Z,7.80
2022-08-26T05:24:16.764Z,7.10
2022-08-26T05:26:44.447Z,7.23
2022-08-26T05:29:12.685Z,7.93
2022-08-26T05:31:39.951Z,6.27
2022-08-26T05:34:07.366Z,5.43
2022-08-26T05:36:37.089Z,5.93
2022-08-26T05:39:07.277Z,5.57
2022-08-26T05:41:38.398Z,5.67
2022-08-26T05:44:09.467Z,4.53
2022-08-26T05:46:37.931Z,5.00
2022-08-26T05:49:06.664Z,5.47
2022-08-26T05:51:41.482Z,5.47
2022-08-26T05:54:10.371Z,4.37
2022-08-26T05:56:39.343Z,5.90
2022-08-26T05:59:10.926Z,5.13
2022-08-26T06:01:42.753Z,5.27
2022-08-26T06:04:10.439Z,5.23
2022-08-26T06:06:38.727Z,4.77
2022-08-26T06:09:06.895Z,5.90
2022-08-26T06:11:38.798Z,5.07
2022-08-26T06:14:07.067Z,5.40
2022-08-26T06:16:37.754Z,4.90
2022-08-26T06:19:10.907Z,4.77
2022-08-26T06:21:41.485Z,5.10
2022-08-26T06:24:11.697Z,6.40
2022-08-26T06:26:40.368Z,5.03
2022-08-26T06:29:10.217Z,5.80
2022-08-26T06:31:37.528Z,6.53
2022-08-26T06:34:10.498Z,5.67
2022-08-26T06:36:41.105Z,5.70
2022-08-26T06:39:13.399Z,5.20
2022-08-26T06:41:43.417Z,4.87
2022-08-26T06:44:11.753Z,4.20
2022-08-26T06:46:40.169Z,4.83
2022-08-26T06:49:07.949Z,5.20
2022-08-26T06:51:38.210Z,5.43
2022-08-26T06:54:07.457Z,4.93
2022-08-26T06:56:43.051Z,5.63
2022-08-26T06:59:11.795Z,4.87
2022-08-26T07:01:42.979Z,4.67
2022-08-26T07:04:13.416Z,5.50
2022-08-26T07:06:44.759Z,5.70
2022-08-26T07:09:13.090Z,4.73
2022-08-26T07:11:41.755Z,5.70
2022-08-26T07:14:08.975Z,4.63
2022-08-26T07:16:36.920Z,4.60
2022-08-26T07:19:10.570Z,4.87
2022-08-26T07:21:40.115Z,4.37
2022-08-26T07:24:08.101Z,5.00
2022-08-26T07:26:35.633Z,3.97
2022-08-26T07:29:03.695Z,3.83
2022-08-26T07:31:39.479Z,4.33
2022-08-26T07:34:10.269Z,3.80
2022-08-26T07:36:37.907Z,4.73
2022-08-26T07:39:06.664Z,4.57
2022-08-26T07:41:34.135Z,4.30
2022-08-26T07:44:01.426Z,4.07
2022-08-26T07:46:30.278Z,3.40
2022-08-26T07:49:01.386Z,3.83
2022-08-26T07:51:28.850Z,3.53
2022-08-26T07:53:56.220Z,3.90
2022-08-26T07:56:24.275Z,3.57
2022-08-26T07:58:53.625Z,3.53
2022-08-26T08:01:22.891Z,4.03
2022-08-26T08:03:51.154Z,3.37
2022-08-26T08:06:19.815Z,3.77
2022-08-26T08:08:47.959Z,3.13
2022-08-26T08:11:20.241Z,3.20
2022-08-26T08:13:48.597Z,2.90
2022-08-26T08:16:16.450Z,3.23
2022-08-26T08:18:43.755Z,2.60
2022-08-26T08:21:22.058Z,2.70
2022-08-26T08:23:53.965Z,2.67
2022-08-26T08:26:22.524Z,2.93
2022-08-26T08:28:50.528Z,2.97
2022-08-26T08:34:15.146Z,2.57
2022-08-26T08:36:42.619Z,2.97
2022-08-26T08:39:09.885Z,2.60
2022-08-26T08:41:53.403Z,3.07
2022-08-26T08:44:31.217Z,2.80
2022-08-26T08:47:03.697Z,2.53
2022-08-26T08:49:33.505Z,2.70
2022-08-26T08:52:04.747Z,2.97
2022-08-26T08:54:32.490Z,3.40
2022-08-26T08:57:24.233Z,3.20
2022-08-26T09:00:05.574Z,2.80
2022-08-26T09:02:44.542Z,2.50
2022-08-26T09:05:28.383Z,2.70
2022-08-26T09:08:14.535Z,3.20
2022-08-26T09:10:47.075Z,2.83
2022-08-26T09:13:16.973Z,2.13
2022-08-26T09:16:05.860Z,2.77
2022-08-26T09:19:03.990Z,2.43
2022-08-26T09:21:32.119Z,3.00
2022-08-26T09:24:00.217Z,2.40
2022-08-26T09:26:44.440Z,2.77
2022-08-26T09:29:22.727Z,2.43
2022-08-26T09:31:51.274Z,2.33
2022-08-26T09:34:20.330Z,2.57
2022-08-26T09:36:53.362Z,2.07
2022-08-26T09:39:24.161Z,2.20
2022-08-26T09:42:23.613Z,3.00
2022-08-26T09:45:04.623Z,2.20
2022-08-26T09:47:44.220Z,3.13
2022-08-26T09:50:28.871Z,2.20
2022-08-26T09:53:09.844Z,2.60
2022-08-26T09:55:47.771Z,3.07
2022-08-26T09:58:37.787Z,3.13
2022-08-26T10:01:34.575Z,2.50
2022-08-26T10:04:23.612Z,2.53
2022-08-26T10:07:03.607Z,2.30
2022-08-26T10:09:38.510Z,3.30
2022-08-26T10:12:16.933Z,2.60
2022-08-26T10:14:57.667Z,1.70
2022-08-26T10:17:36.318Z,2.90
2022-08-26T10:20:23.204Z,3.00
2022-08-26T10:22:51.058Z,2.20
2022-08-26T10:25:29.086Z,2.27
2022-08-26T10:28:09.680Z,2.40
2022-08-26T10:30:45.383Z,2.17
2022-08-26T10:33:14.901Z,2.50
2022-08-26T10:36:06.124Z,2.13
2022-08-26T10:38:38.439Z,1.70
2022-08-26T10:41:13.927Z,2.20
2022-08-26T10:43:59.134Z,2.43
2022-08-26T10:46:40.907Z,2.00
2022-08-26T10:49:16.150Z,2.10
2022-08-26T10:52:00.832Z,1.80
2022-08-26T10:54:37.309Z,2.00
2022-08-26T10:57:22.383Z,2.20
2022-08-26T11:00:14.244Z,1.93
2022-08-26T11:02:47.627Z,2.17
2022-08-26T11:05:23.268Z,2.33
2022-08-26T11:08:11.714Z,2.50
2022-08-26T11:10:59.026Z,2.20
2022-08-26T11:13:58.493Z,2.50
2022-08-26T11:16:49.426Z,2.27
2022-08-26T11:19:56.702Z,2.10
2022-08-26T11:22:25.851Z,2.77
2022-08-26T11:24:53.020Z,2.70
2022-08-26T11:27:26.371Z,2.30
2022-08-26T11:30:14.610Z,2.07
2022-08-26T11:32:41.795Z,1.70
2022-08-26T11:35:31.829Z,1.80
2022-08-26T11:38:23.901Z,2.23
2022-08-26T11:41:11.898Z,2.00
2022-08-26T11:43:40.212Z,2.07
2022-08-26T11:46:10.387Z,2.37
2022-08-26T11:48:42.992Z,3.60
2022-08-26T11:51:16.027Z,3.03
2022-08-26T11:53:44.217Z,2.70
2022-08-26T11:56:32.498Z,2.43
2022-08-26T11:59:03.346Z,2.93
2022-08-26T12:01:36.931Z,1.90
2022-08-26T12:04:07.738Z,1.87
2022-08-26T12:06:45.032Z,1.90
2022-08-26T12:09:23.725Z,1.53
2022-08-26T12:11:51.249Z,1.90
2022-08-26T12:14:24.834Z,2.10
2022-08-26T12:16:52.973Z,2.53
2022-08-26T12:19:27.445Z,1.80
2022-08-26T12:22:07.584Z,1.53
2022-08-26T12:24:36.333Z,1.67
2022-08-26T12:27:53.081Z,1.37
2022-08-26T12:30:26.140Z,2.03
2022-08-26T12:33:19.331Z,2.03
2022-08-26T12:35:54.967Z,1.70
2022-08-26T12:38:25.870Z,2.10
2022-08-26T12:40:53.737Z,1.80
2022-08-26T12:43:43.901Z,2.00
2022-08-26T12:46:15.799Z,1.77
2022-08-26T12:48:47.383Z,1.93
2022-08-26T12:51:29.579Z,1.50
2022-08-26T12:53:58.383Z,1.70
2022-08-26T12:56:35.630Z,1.30
2022-08-26T12:59:17.986Z,1.50
2022-08-26T13:01:45.834Z,1.60
2022-08-26T13:04:34.805Z,1.60
2022-08-26T13:07:22.210Z,2.03
2022-08-26T13:09:51.674Z,2.67
2022-08-26T13:12:27.240Z,1.83
2022-08-26T13:14:54.981Z,2.30
2022-08-26T13:17:22.327Z,1.80
2022-08-26T13:19:49.669Z,1.27
2022-08-26T13:22:20.668Z,1.73
2022-08-26T13:24:49.192Z,1.57
2022-08-26T13:27:16.504Z,1.83
2022-08-26T13:29:43.879Z,1.50
2022-08-26T13:32:11.108Z,1.87
2022-08-26T13:34:38.636Z,1.60
2022-08-26T13:37:06.481Z,2.00
2022-08-26T13:39:33.741Z,1.50
2022-08-26T13:42:01.330Z,1.60
2022-08-26T13:44:28.961Z,1.80
2022-08-26T13:46:56.462Z,1.83
2022-08-26T13:49:24.071Z,1.83
2022-08-26T13:51:51.580Z,1.70
2022-08-26T13:54:19.197Z,1.40
2022-08-26T13:56:46.685Z,1.70
2022-08-26T13:59:14.225Z,1.60
2022-08-26T14:01:41.432Z,1.70
2022-08-26T14:04:08.840Z,1.93
2022-08-26T14:06:36.349Z,1.67
2022-08-26T14:09:04.755Z,2.00
2022-08-26T14:11:34.789Z,1.57
2022-08-26T14:14:18.028Z,1.97
2022-08-26T14:16:59.747Z,2.30
2022-08-26T14:19:31.769Z,1.73
2022-08-26T14:22:00.135Z,1.93
2022-08-26T14:24:27.573Z,1.63
2022-08-26T14:26:54.793Z,1.30
2022-08-26T14:29:22.034Z,1.73
2022-08-26T14:31:49.408Z,2.30
2022-08-26T14:34:16.846Z,1.50
2022-08-26T14:36:44.221Z,2.00
2022-08-26T14:39:12.939Z,1.70
2022-08-26T14:41:54.993Z,1.23
2022-08-26T14:44:26.860Z,2.23
2022-08-26T14:46:54.883Z,2.13
2022-08-26T14:49:23.805Z,1.73
2022-08-26T14:51:51.005Z,2.10
2022-08-26T14:54:19.251Z,1.67
2022-08-26T14:56:48.106Z,1.60
2022-08-26T14:59:18.035Z,2.10
2022-08-26T15:01:45.467Z,1.40
2022-08-26T15:04:13.556Z,1.50
2022-08-26T15:06:41.021Z,1.30
2022-08-26T15:09:08.348Z,2.17
2022-08-26T15:11:35.551Z,1.20
2022-08-26T15:14:02.809Z,1.40
2022-08-26T15:16:30.714Z,1.43
2022-08-26T15:18:57.966Z,1.50
2022-08-26T15:21:26.475Z,1.50
2022-08-26T15:23:54.223Z,1.23
2022-08-26T15:26:22.562Z,1.70
2022-08-26T15:28:50.532Z,1.97
2022-08-26T15:31:18.381Z,1.60
2022-08-26T15:33:45.676Z,1.23
2022-08-26T15:36:12.891Z,1.43
2022-08-26T15:38:41.513Z,1.03
2022-08-26T15:41:09.570Z,1.40
2022-08-26T15:43:37.812Z,1.37
2022-08-26T15:46:09.614Z,1.87
2022-08-26T15:48:37.037Z,1.27
2022-08-26T15:51:04.789Z,1.60
2022-08-26T15:53:33.866Z,2.13
2022-08-26T15:56:02.018Z,1.20
2022-08-26T15:58:29.676Z,1.63
2022-08-26T16:00:57.649Z,1.60
2022-08-26T16:03:24.936Z,1.23
2022-08-26T16:05:52.250Z,1.40
2022-08-26T16:08:19.554Z,1.53
2022-08-26T16:10:50.663Z,1.20
2022-08-26T16:13:19.614Z,1.20
2022-08-26T16:15:48.213Z,1.30
2022-08-26T16:18:16.177Z,1.07
2022-08-26T16:21:12.904Z,1.40
2022-08-26T16:23:39.209Z,1.30
2022-08-26T16:26:11.545Z,1.20
2022-08-26T16:28:39.199Z,1.03
2022-08-26T16:31:07.137Z,1.10
2022-08-26T16:33:34.425Z,1.00
2022-08-26T16:36:01.644Z,1.40
2022-08-26T16:38:28.870Z,1.30
2022-08-26T16:40:56.026Z,1.40
2022-08-26T16:43:23.243Z,1.63
2022-08-26T16:45:50.451Z,1.27
2022-08-26T16:48:17.680Z,1.20
2022-08-26T16:50:44.997Z,1.27
2022-08-26T16:55:45.849Z,1.10
2022-08-26T16:58:13.085Z,1.40
2022-08-26T17:00:40.495Z,1.60
2022-08-26T17:03:08.193Z,1.10
2022-08-26T17:05:36.052Z,1.27
2022-08-26T17:08:04.655Z,0.90
2022-08-26T17:10:33.211Z,1.43
2022-08-26T17:13:00.613Z,1.10
2022-08-26T17:15:28.005Z,1.30
2022-08-26T17:17:56.031Z,1.63
2022-08-26T17:20:24.306Z,1.40
2022-08-26T17:22:53.720Z,1.50
2022-08-26T17:25:25.399Z,1.43
2022-08-26T17:27:53.360Z,0.93
2022-08-26T17:30:21.103Z,1.60
2022-08-26T17:32:48.716Z,1.43
2022-08-26T17:35:16.836Z,2.37
2022-08-26T17:37:44.879Z,1.30
2022-08-26T17:40:15.444Z,1.30
2022-08-26T17:42:43.088Z,1.23
2022-08-26T17:45:11.247Z,1.00
2022-08-26T17:47:39.455Z,1.30
2022-08-26T17:50:10.001Z,1.10
2022-08-26T17:52:38.270Z,1.10
2022-08-26T17:55:07.514Z,1.40
2022-08-26T17:57:40.476Z,1.10
2022-08-26T18:00:20.635Z,1.67
2022-08-26T18:02:47.841Z,0.97
2022-08-26T18:05:16.005Z,1.23
2022-08-26T18:07:44.287Z,1.13
2022-08-26T18:10:14.282Z,1.17
2022-08-26T18:12:41.995Z,0.90
2022-08-26T18:15:11.119Z,1.50
2022-08-26T18:17:38.915Z,1.17
2022-08-26T18:20:11.203Z,1.43
2022-08-26T18:22:38.571Z,1.67
2022-08-26T18:25:06.818Z,1.10
2022-08-26T18:27:34.636Z,0.93
2022-08-26T18:30:06.700Z,1.00
2022-08-26T18:32:34.036Z,1.10
2022-08-26T18:35:01.571Z,1.93
2022-08-26T18:37:31.689Z,0.97
2022-08-26T18:39:59.201Z,0.90
2022-08-26T18:42:27.048Z,0.93
2022-08-26T18:44:54.775Z,1.00
2022-08-26T18:47:22.415Z,1.20
2022-08-26T18:49:53.395Z,0.90
2022-08-26T18:52:21.649Z,1.33
2022-08-26T18:54:51.087Z,1.33
2022-08-26T18:57:18.442Z,1.37
2022-08-26T18:59:45.827Z,1.07
2022-08-26T19:02:13.136Z,1.10
2022-08-26T19:04:40.477Z,1.33
2022-08-26T19:07:09.370Z,1.20
2022-08-26T19:09:36.637Z,1.43
2022-08-26T19:12:04.703Z,1.00
2022-08-26T19:14:32.446Z,1.43
2022-08-26T19:16:59.809Z,1.43
2022-08-26T19:19:27.281Z,1.33
2022-08-26T19:21:54.624Z,0.90
2022-08-26T19:24:22.484Z,1.10
2022-08-26T19:27:00.169Z,1.47
2022-08-26T19:29:30.696Z,1.00
2022-08-26T19:31:57.994Z,1.27
2022-08-26T19:34:25.470Z,1.20
2022-08-26T19:36:53.123Z,1.20
2022-08-26T19:39:21.391Z,1.30
2022-08-26T19:41:48.775Z,1.33
2022-08-26T19:44:20.314Z,1.40
2022-08-26T19:46:47.660Z,1.77
2022-08-26T19:49:14.946Z,1.30
2022-08-26T19:51:42.249Z,1.80
2022-08-26T19:54:09.528Z,1.50
2022-08-26T19:56:36.731Z,1.37
2022-08-26T19:59:03.938Z,1.43
2022-08-26T20:01:31.354Z,1.87
2022-08-26T20:03:58.573Z,1.93
2022-08-26T20:06:25.868Z,1.50
2022-08-26T20:08:53.928Z,1.30
2022-08-26T20:11:23.805Z,1.97
2022-08-26T20:13:51.066Z,1.63
2022-08-26T20:16:18.474Z,1.30
2022-08-26T20:18:45.845Z,1.33
2022-08-26T20:21:13.553Z,1.20
2022-08-26T20:23:41.166Z,1.43
2022-08-26T20:26:08.426Z,1.87
2022-08-26T20:28:35.683Z,1.40
2022-08-26T20:31:03.600Z,1.40
2022-08-26T20:33:32.111Z,1.40
2022-08-26T20:36:14.616Z,2.33
2022-08-26T20:38:42.114Z,1.20
2022-08-26T20:41:09.550Z,1.30
2022-08-26T20:43:36.844Z,1.47
2022-08-26T20:46:04.234Z,1.20
2022-08-26T20:48:37.558Z,1.33
2022-08-26T20:51:05.892Z,1.07
2022-08-26T20:53:33.698Z,1.83
2022-08-26T20:56:03.370Z,1.33
2022-08-26T20:58:30.711Z,1.23
2022-08-26T21:00:58.123Z,1.17
2022-08-26T21:03:25.376Z,1.20
2022-08-26T21:05:52.621Z,1.10
2022-08-26T21:08:19.875Z,1.60
2022-08-26T21:10:47.639Z,1.03
2022-08-26T21:13:14.798Z,1.00
2022-08-26T21:15:42.022Z,1.50
2022-08-26T21:18:09.345Z,1.27
2022-08-26T21:20:37.375Z,1.30
2022-08-26T21:23:05.695Z,1.00
2022-08-26T21:25:32.905Z,1.10
2022-08-26T21:28:00.094Z,0.90
2022-08-26T21:30:27.475Z,1.13
2022-08-26T21:32:54.702Z,0.83
2022-08-26T21:35:21.892Z,1.07
2022-08-26T21:37:49.078Z,1.17
2022-08-26T21:40:16.452Z,1.30
2022-08-26T21:42:43.724Z,1.30
2022-08-26T21:45:11.508Z,1.30
2022-08-26T21:47:38.830Z,1.97
2022-08-26T21:50:06.553Z,1.63
2022-08-26T21:52:34.329Z,1.50
2022-08-26T21:55:02.933Z,1.43
2022-08-26T21:57:30.180Z,1.70
2022-08-26T21:59:57.653Z,1.20
2022-08-26T22:02:25.217Z,0.90
2022-08-26T22:04:52.541Z,1.10
2022-08-26T22:07:19.856Z,1.10
2022-08-26T22:09:47.249Z,1.07
2022-08-26T22:12:14.982Z,1.00
2022-08-26T22:14:42.174Z,1.33
2022-08-26T22:17:09.548Z,1.80
2022-08-26T22:19:45.655Z,1.37
2022-08-26T22:22:14.436Z,1.37
2022-08-26T22:24:41.675Z,1.40
2022-08-26T22:27:09.100Z,2.00
2022-08-26T22:29:36.384Z,1.10
2022-08-26T22:32:04.052Z,1.10
2022-08-26T22:34:31.365Z,1.43
2022-08-26T22:36:58.581Z,1.03
2022-08-26T22:39:26.423Z,1.30
2022-08-26T22:41:54.318Z,1.83
2022-08-26T22:44:22.344Z,1.60
2022-08-26T22:46:51.871Z,2.20
2022-08-26T22:49:19.160Z,1.10
2022-08-26T22:51:46.966Z,1.53
2022-08-26T22:54:14.912Z,1.80
2022-08-26T22:56:44.429Z,1.20
2022-08-26T22:59:12.755Z,1.80
2022-08-26T23:01:43.682Z,1.23
2022-08-26T23:04:11.046Z,1.40
2022-08-26T23:06:41.307Z,1.50
2022-08-26T23:09:09.323Z,1.63
2022-08-26T23:11:37.026Z,1.10
2022-08-26T23:14:06.269Z,0.80
2022-08-26T23:16:36.294Z,2.23
2022-08-26T23:19:08.136Z,1.50
2022-08-26T23:21:35.466Z,1.20
2022-08-26T23:24:02.891Z,1.20
2022-08-26T23:26:30.487Z,1.27
2022-08-26T23:28:58.215Z,1.00
2022-08-26T23:31:25.432Z,2.07
2022-08-26T23:33:52.660Z,1.30
2022-08-26T23:36:22.980Z,1.17
2022-08-26T23:38:52.763Z,1.23
2022-08-26T23:41:22.774Z,1.63
2022-08-26T23:43:50.752Z,1.00
2022-08-26T23:46:19.170Z,1.30
2022-08-26T23:48:46.954Z,1.40
2022-08-26T23:51:14.212Z,2.10
2022-08-26T23:53:41.531Z,1.30
2022-08-26T23:56:13.508Z,1.00
2022-08-26T23:58:40.801Z,1.43
